sensor_id;sensor_type;location;lat;lon;timestamp;P1;durP1;ratioP1;P2;durP2;ratioP2
5730;SDS011;2890;51.950;7.668;2024-03-08T00:00:29;22.77;;;17.67;;
5730;SDS011;2890;51.950;7.668;2024-03-08T00:02:57;19.47;;;16.60;;
5730;SDS011;2890;51.950;7.668;2024-03-08T00:05:23;21.67;;;18.63;;
5730;SDS011;2890;51.950;7.668;2024-03-08T00:07:50;26.77;;;18.13;;
5730;SDS011;2890;51.950;7.668;2024-03-08T00:10:18;24.07;;;19.47;;
5730;SDS011;2890;51.950;7.668;2024-03-08T00:12:46;22.93;;;17.70;;
5730;SDS011;2890;51.950;7.668;2024-03-08T00:15:13;23.53;;;18.10;;
5730;SDS011;2890;51.950;7.668;2024-03-08T00:17:41;24.13;;;19.47;;
5730;SDS011;2890;51.950;7.668;2024-03-08T00:20:09;22.17;;;17.50;;
5730;SDS011;2890;51.950;7.668;2024-03-08T00:22:36;21.70;;;17.73;;
5730;SDS011;2890;51.950;7.668;2024-03-08T00:25:02;24.63;;;18.40;;
5730;SDS011;2890;51.950;7.668;2024-03-08T00:27:31;23.53;;;18.00;;
5730;SDS011;2890;51.950;7.668;2024-03-08T00:29:57;25.60;;;20.20;;
5730;SDS011;2890;51.950;7.668;2024-03-08T00:32:24;22.10;;;17.67;;
5730;SDS011;2890;51.950;7.668;2024-03-08T00:34:50;22.70;;;18.53;;
5730;SDS011;2890;51.950;7.668;2024-03-08T00:37:17;26.80;;;19.00;;
5730;SDS011;2890;51.950;7.668;2024-03-08T00:39:44;23.80;;;17.67;;
5730;SDS011;2890;51.950;7.668;2024-03-08T00:42:10;30.30;;;20.50;;
5730;SDS011;2890;51.950;7.668;2024-03-08T00:44:38;33.27;;;21.20;;
5730;SDS011;2890;51.950;7.668;2024-03-08T00:47:05;27.90;;;19.23;;
5730;SDS011;2890;51.950;7.668;2024-03-08T00:49:32;22.90;;;18.23;;
5730;SDS011;2890;51.950;7.668;2024-03-08T00:51:58;22.07;;;18.30;;
5730;SDS011;2890;51.950;7.668;2024-03-08T00:54:25;24.67;;;19.27;;
5730;SDS011;2890;51.950;7.668;2024-03-08T00:56:51;25.00;;;18.90;;
5730;SDS011;2890;51.950;7.668;2024-03-08T00:59:18;23.90;;;18.70;;
5730;SDS011;2890;51.950;7.668;2024-03-08T01:01:46;28.13;;;20.50;;
5730;SDS011;2890;51.950;7.668;2024-03-08T01:04:12;29.90;;;19.87;;
5730;SDS011;2890;51.950;7.668;2024-03-08T01:06:39;26.23;;;19.30;;
5730;SDS011;2890;51.950;7.668;2024-03-08T01:09:07;24.13;;;18.77;;
5730;SDS011;2890;51.950;7.668;2024-03-08T01:11:34;27.70;;;20.40;;
5730;SDS011;2890;51.950;7.668;2024-03-08T01:14:00;25.83;;;20.07;;
5730;SDS011;2890;51.950;7.668;2024-03-08T01:16:27;25.00;;;19.43;;
5730;SDS011;2890;51.950;7.668;2024-03-08T01:18:55;27.47;;;19.70;;
5730;SDS011;2890;51.950;7.668;2024-03-08T01:21:21;26.87;;;20.60;;
5730;SDS011;2890;51.950;7.668;2024-03-08T01:23:48;25.20;;;19.77;;
5730;SDS011;2890;51.950;7.668;2024-03-08T01:26:17;26.10;;;19.33;;
5730;SDS011;2890;51.950;7.668;2024-03-08T01:28:44;26.87;;;19.63;;
5730;SDS011;2890;51.950;7.668;2024-03-08T01:31:10;26.67;;;18.90;;
5730;SDS011;2890;51.950;7.668;2024-03-08T01:33:38;28.33;;;21.17;;
5730;SDS011;2890;51.950;7.668;2024-03-08T01:36:06;26.63;;;19.53;;
5730;SDS011;2890;51.950;7.668;2024-03-08T01:38:33;28.93;;;20.23;;
5730;SDS011;2890;51.950;7.668;2024-03-08T01:41:01;26.23;;;20.50;;
5730;SDS011;2890;51.950;7.668;2024-03-08T01:43:28;27.40;;;20.47;;
5730;SDS011;2890;51.950;7.668;2024-03-08T01:45:55;25.80;;;18.97;;
5730;SDS011;2890;51.950;7.668;2024-03-08T01:48:23;25.70;;;19.63;;
5730;SDS011;2890;51.950;7.668;2024-03-08T01:50:50;27.80;;;20.30;;
5730;SDS011;2890;51.950;7.668;2024-03-08T01:53:19;27.87;;;20.50;;
5730;SDS011;2890;51.950;7.668;2024-03-08T01:55:46;26.53;;;20.50;;
5730;SDS011;2890;51.950;7.668;2024-03-08T01:58:14;25.40;;;19.20;;
5730;SDS011;2890;51.950;7.668;2024-03-08T02:00:41;31.47;;;21.27;;
5730;SDS011;2890;51.950;7.668;2024-03-08T02:03:08;28.40;;;20.00;;
5730;SDS011;2890;51.950;7.668;2024-03-08T02:05:35;24.47;;;19.00;;
5730;SDS011;2890;51.950;7.668;2024-03-08T02:08:03;26.90;;;20.80;;
5730;SDS011;2890;51.950;7.668;2024-03-08T02:10:32;26.53;;;22.37;;
5730;SDS011;2890;51.950;7.668;2024-03-08T02:12:58;28.67;;;20.67;;
5730;SDS011;2890;51.950;7.668;2024-03-08T02:15:25;26.80;;;20.77;;
5730;SDS011;2890;51.950;7.668;2024-03-08T02:17:52;24.27;;;20.50;;
5730;SDS011;2890;51.950;7.668;2024-03-08T02:20:19;29.13;;;22.10;;
5730;SDS011;2890;51.950;7.668;2024-03-08T02:22:47;26.73;;;20.83;;
5730;SDS011;2890;51.950;7.668;2024-03-08T02:25:15;28.17;;;20.80;;
5730;SDS011;2890;51.950;7.668;2024-03-08T02:27:42;27.33;;;22.00;;
5730;SDS011;2890;51.950;7.668;2024-03-08T02:30:10;27.77;;;20.80;;
5730;SDS011;2890;51.950;7.668;2024-03-08T02:32:37;34.87;;;22.03;;
5730;SDS011;2890;51.950;7.668;2024-03-08T02:35:04;28.70;;;20.90;;
5730;SDS011;2890;51.950;7.668;2024-03-08T02:37:31;36.90;;;21.60;;
5730;SDS011;2890;51.950;7.668;2024-03-08T02:39:59;28.50;;;21.50;;
5730;SDS011;2890;51.950;7.668;2024-03-08T02:42:25;26.03;;;20.63;;
5730;SDS011;2890;51.950;7.668;2024-03-08T02:44:52;29.97;;;20.77;;
5730;SDS011;2890;51.950;7.668;2024-03-08T02:47:19;33.27;;;21.83;;
5730;SDS011;2890;51.950;7.668;2024-03-08T02:49:45;26.80;;;20.40;;
5730;SDS011;2890;51.950;7.668;2024-03-08T02:52:12;32.43;;;21.37;;
5730;SDS011;2890;51.950;7.668;2024-03-08T02:54:38;31.73;;;21.17;;
5730;SDS011;2890;51.950;7.668;2024-03-08T03:03:56;29.13;;;21.27;;
5730;SDS011;2890;51.950;7.668;2024-03-08T03:06:23;30.27;;;21.77;;
5730;SDS011;2890;51.950;7.668;2024-03-08T03:08:49;31.50;;;21.50;;
5730;SDS011;2890;51.950;7.668;2024-03-08T03:11:16;34.20;;;23.00;;
5730;SDS011;2890;51.950;7.668;2024-03-08T03:13:42;29.43;;;21.40;;
5730;SDS011;2890;51.950;7.668;2024-03-08T03:16:16;30.13;;;21.90;;
5730;SDS011;2890;51.950;7.668;2024-03-08T03:18:43;31.90;;;22.50;;
5730;SDS011;2890;51.950;7.668;2024-03-08T03:21:11;30.37;;;21.80;;
5730;SDS011;2890;51.950;7.668;2024-03-08T03:23:38;30.13;;;22.30;;
5730;SDS011;2890;51.950;7.668;2024-03-08T03:26:04;35.13;;;23.43;;
5730;SDS011;2890;51.950;7.668;2024-03-08T03:28:32;32.30;;;22.20;;
5730;SDS011;2890;51.950;7.668;2024-03-08T03:30:58;27.10;;;21.60;;
5730;SDS011;2890;51.950;7.668;2024-03-08T03:33:26;31.97;;;20.77;;
5730;SDS011;2890;51.950;7.668;2024-03-08T03:35:53;32.73;;;22.90;;
5730;SDS011;2890;51.950;7.668;2024-03-08T03:38:20;28.27;;;21.60;;
5730;SDS011;2890;51.950;7.668;2024-03-08T03:40:48;28.13;;;21.33;;
5730;SDS011;2890;51.950;7.668;2024-03-08T03:43:17;33.67;;;24.03;;
5730;SDS011;2890;51.950;7.668;2024-03-08T03:45:44;30.90;;;23.00;;
5730;SDS011;2890;51.950;7.668;2024-03-08T03:48:10;32.40;;;23.30;;
5730;SDS011;2890;51.950;7.668;2024-03-08T03:50:37;30.63;;;23.20;;
5730;SDS011;2890;51.950;7.668;2024-03-08T03:53:04;32.00;;;22.80;;
5730;SDS011;2890;51.950;7.668;2024-03-08T03:55:34;30.73;;;22.40;;
5730;SDS011;2890;51.950;7.668;2024-03-08T03:58:01;35.70;;;24.50;;
5730;SDS011;2890;51.950;7.668;2024-03-08T04:00:28;35.60;;;24.00;;
5730;SDS011;2890;51.950;7.668;2024-03-08T04:02:55;31.83;;;23.30;;
5730;SDS011;2890;51.950;7.668;2024-03-08T04:05:24;28.20;;;22.10;;
5730;SDS011;2890;51.950;7.668;2024-03-08T04:07:50;31.47;;;23.17;;
5730;SDS011;2890;51.950;7.668;2024-03-08T04:10:18;29.83;;;23.37;;
5730;SDS011;2890;51.950;7.668;2024-03-08T04:12:46;34.43;;;22.97;;
5730;SDS011;2890;51.950;7.668;2024-03-08T04:15:13;29.20;;;22.33;;
5730;SDS011;2890;51.950;7.668;2024-03-08T04:17:40;29.67;;;22.10;;
5730;SDS011;2890;51.950;7.668;2024-03-08T04:20:06;33.23;;;23.50;;
5730;SDS011;2890;51.950;7.668;2024-03-08T04:22:35;33.23;;;22.77;;
5730;SDS011;2890;51.950;7.668;2024-03-08T04:25:01;41.13;;;25.70;;
5730;SDS011;2890;51.950;7.668;2024-03-08T04:27:28;35.43;;;23.33;;
5730;SDS011;2890;51.950;7.668;2024-03-08T04:29:56;38.30;;;24.40;;
5730;SDS011;2890;51.950;7.668;2024-03-08T04:32:23;33.40;;;23.93;;
5730;SDS011;2890;51.950;7.668;2024-03-08T04:34:49;35.63;;;23.07;;
5730;SDS011;2890;51.950;7.668;2024-03-08T04:37:15;32.93;;;22.80;;
5730;SDS011;2890;51.950;7.668;2024-03-08T04:39:43;32.73;;;23.67;;
5730;SDS011;2890;51.950;7.668;2024-03-08T04:42:09;33.80;;;24.40;;
5730;SDS011;2890;51.950;7.668;2024-03-08T04:44:36;34.00;;;23.30;;
5730;SDS011;2890;51.950;7.668;2024-03-08T04:47:04;36.23;;;24.67;;
5730;SDS011;2890;51.950;7.668;2024-03-08T04:49:31;38.37;;;23.87;;
5730;SDS011;2890;51.950;7.668;2024-03-08T04:51:59;36.20;;;24.37;;
5730;SDS011;2890;51.950;7.668;2024-03-08T04:54:27;37.77;;;23.40;;
5730;SDS011;2890;51.950;7.668;2024-03-08T04:56:54;32.33;;;25.07;;
5730;SDS011;2890;51.950;7.668;2024-03-08T04:59:20;33.30;;;24.70;;
5730;SDS011;2890;51.950;7.668;2024-03-08T05:01:47;34.20;;;24.87;;
5730;SDS011;2890;51.950;7.668;2024-03-08T05:04:15;33.23;;;24.20;;
5730;SDS011;2890;51.950;7.668;2024-03-08T05:06:41;39.23;;;24.70;;
5730;SDS011;2890;51.950;7.668;2024-03-08T05:09:08;35.27;;;24.33;;
5730;SDS011;2890;51.950;7.668;2024-03-08T05:11:40;36.10;;;24.30;;
5730;SDS011;2890;51.950;7.668;2024-03-08T05:14:06;34.70;;;23.17;;
5730;SDS011;2890;51.950;7.668;2024-03-08T05:16:33;33.00;;;24.73;;
5730;SDS011;2890;51.950;7.668;2024-03-08T05:19:00;37.53;;;25.40;;
5730;SDS011;2890;51.950;7.668;2024-03-08T05:21:28;35.23;;;24.40;;
5730;SDS011;2890;51.950;7.668;2024-03-08T05:23:54;36.10;;;25.60;;
5730;SDS011;2890;51.950;7.668;2024-03-08T05:26:21;34.33;;;25.17;;
5730;SDS011;2890;51.950;7.668;2024-03-08T05:28:48;35.70;;;23.80;;
5730;SDS011;2890;51.950;7.668;2024-03-08T05:31:17;35.30;;;25.23;;
5730;SDS011;2890;51.950;7.668;2024-03-08T05:33:45;33.73;;;23.37;;
5730;SDS011;2890;51.950;7.668;2024-03-08T05:36:12;38.33;;;23.60;;
5730;SDS011;2890;51.950;7.668;2024-03-08T05:38:42;33.83;;;23.33;;
5730;SDS011;2890;51.950;7.668;2024-03-08T05:41:09;37.30;;;24.50;;
5730;SDS011;2890;51.950;7.668;2024-03-08T05:43:36;36.00;;;25.20;;
5730;SDS011;2890;51.950;7.668;2024-03-08T05:46:03;33.63;;;24.27;;
5730;SDS011;2890;51.950;7.668;2024-03-08T05:48:30;32.90;;;23.50;;
5730;SDS011;2890;51.950;7.668;2024-03-08T05:50:57;32.40;;;22.97;;
5730;SDS011;2890;51.950;7.668;2024-03-08T05:53:23;33.10;;;24.23;;
5730;SDS011;2890;51.950;7.668;2024-03-08T05:55:51;40.40;;;24.33;;
5730;SDS011;2890;51.950;7.668;2024-03-08T05:58:17;34.93;;;23.90;;
5730;SDS011;2890;51.950;7.668;2024-03-08T06:00:44;33.70;;;25.47;;
5730;SDS011;2890;51.950;7.668;2024-03-08T06:03:11;36.40;;;24.27;;
5730;SDS011;2890;51.950;7.668;2024-03-08T06:05:37;37.10;;;25.37;;
5730;SDS011;2890;51.950;7.668;2024-03-08T06:08:07;35.80;;;24.40;;
5730;SDS011;2890;51.950;7.668;2024-03-08T06:10:33;36.53;;;24.80;;
5730;SDS011;2890;51.950;7.668;2024-03-08T06:13:02;35.30;;;24.50;;
5730;SDS011;2890;51.950;7.668;2024-03-08T06:15:28;40.03;;;23.50;;
5730;SDS011;2890;51.950;7.668;2024-03-08T06:17:55;33.77;;;23.63;;
5730;SDS011;2890;51.950;7.668;2024-03-08T06:20:22;36.33;;;24.93;;
5730;SDS011;2890;51.950;7.668;2024-03-08T06:22:51;39.30;;;25.07;;
5730;SDS011;2890;51.950;7.668;2024-03-08T06:25:17;33.93;;;24.47;;
5730;SDS011;2890;51.950;7.668;2024-03-08T06:27:45;39.70;;;24.27;;
5730;SDS011;2890;51.950;7.668;2024-03-08T06:30:13;35.13;;;24.77;;
5730;SDS011;2890;51.950;7.668;2024-03-08T06:32:41;36.73;;;25.03;;
5730;SDS011;2890;51.950;7.668;2024-03-08T06:35:08;38.20;;;23.80;;
5730;SDS011;2890;51.950;7.668;2024-03-08T06:37:35;35.90;;;24.43;;
5730;SDS011;2890;51.950;7.668;2024-03-08T06:40:02;38.20;;;25.80;;
5730;SDS011;2890;51.950;7.668;2024-03-08T06:42:29;34.77;;;24.93;;
5730;SDS011;2890;51.950;7.668;2024-03-08T06:44:58;37.03;;;25.00;;
5730;SDS011;2890;51.950;7.668;2024-03-08T06:47:31;33.53;;;24.67;;
5730;SDS011;2890;51.950;7.668;2024-03-08T06:49:58;32.70;;;24.50;;
5730;SDS011;2890;51.950;7.668;2024-03-08T06:52:24;32.80;;;23.50;;
5730;SDS011;2890;51.950;7.668;2024-03-08T06:54:50;31.50;;;22.80;;
5730;SDS011;2890;51.950;7.668;2024-03-08T06:57:17;34.33;;;23.67;;
5730;SDS011;2890;51.950;7.668;2024-03-08T06:59:46;30.40;;;23.07;;
5730;SDS011;2890;51.950;7.668;2024-03-08T07:02:13;33.70;;;22.80;;
5730;SDS011;2890;51.950;7.668;2024-03-08T07:04:41;36.30;;;22.23;;
5730;SDS011;2890;51.950;7.668;2024-03-08T07:07:07;31.10;;;23.67;;
5730;SDS011;2890;51.950;7.668;2024-03-08T07:09:34;31.77;;;22.70;;
5730;SDS011;2890;51.950;7.668;2024-03-08T07:12:01;33.63;;;23.80;;
5730;SDS011;2890;51.950;7.668;2024-03-08T07:14:27;31.43;;;22.63;;
5730;SDS011;2890;51.950;7.668;2024-03-08T07:16:54;31.73;;;23.10;;
5730;SDS011;2890;51.950;7.668;2024-03-08T07:19:20;28.30;;;22.73;;
5730;SDS011;2890;51.950;7.668;2024-03-08T07:21:49;31.63;;;22.90;;
5730;SDS011;2890;51.950;7.668;2024-03-08T07:24:15;34.67;;;24.23;;
5730;SDS011;2890;51.950;7.668;2024-03-08T07:27:03;34.40;;;23.97;;
5730;SDS011;2890;51.950;7.668;2024-03-08T07:29:30;35.23;;;24.27;;
5730;SDS011;2890;51.950;7.668;2024-03-08T07:31:56;32.27;;;23.50;;
5730;SDS011;2890;51.950;7.668;2024-03-08T07:34:36;34.67;;;24.30;;
5730;SDS011;2890;51.950;7.668;2024-03-08T07:37:04;33.23;;;24.73;;
5730;SDS011;2890;51.950;7.668;2024-03-08T07:39:31;33.27;;;26.67;;
5730;SDS011;2890;51.950;7.668;2024-03-08T07:41:57;33.50;;;24.57;;
5730;SDS011;2890;51.950;7.668;2024-03-08T07:44:24;33.17;;;25.33;;
5730;SDS011;2890;51.950;7.668;2024-03-08T07:46:50;32.80;;;24.30;;
5730;SDS011;2890;51.950;7.668;2024-03-08T07:49:17;34.47;;;26.13;;
5730;SDS011;2890;51.950;7.668;2024-03-08T07:51:43;28.93;;;24.10;;
5730;SDS011;2890;51.950;7.668;2024-03-08T07:54:11;34.70;;;24.87;;
5730;SDS011;2890;51.950;7.668;2024-03-08T07:56:38;33.47;;;26.27;;
5730;SDS011;2890;51.950;7.668;2024-03-08T07:59:04;34.63;;;25.37;;
5730;SDS011;2890;51.950;7.668;2024-03-08T08:01:31;33.57;;;25.50;;
5730;SDS011;2890;51.950;7.668;2024-03-08T08:03:58;33.20;;;26.53;;
5730;SDS011;2890;51.950;7.668;2024-03-08T08:06:26;30.87;;;24.63;;
5730;SDS011;2890;51.950;7.668;2024-03-08T08:08:52;32.07;;;26.17;;
5730;SDS011;2890;51.950;7.668;2024-03-08T08:11:21;28.40;;;24.13;;
5730;SDS011;2890;51.950;7.668;2024-03-08T08:13:47;30.00;;;25.07;;
5730;SDS011;2890;51.950;7.668;2024-03-08T08:16:14;33.83;;;26.03;;
5730;SDS011;2890;51.950;7.668;2024-03-08T08:18:40;34.63;;;26.57;;
5730;SDS011;2890;51.950;7.668;2024-03-08T08:21:07;37.80;;;26.73;;
5730;SDS011;2890;51.950;7.668;2024-03-08T08:23:33;40.57;;;26.63;;
5730;SDS011;2890;51.950;7.668;2024-03-08T08:26:00;32.03;;;26.97;;
5730;SDS011;2890;51.950;7.668;2024-03-08T08:28:29;33.57;;;26.20;;
5730;SDS011;2890;51.950;7.668;2024-03-08T08:30:56;31.20;;;25.63;;
5730;SDS011;2890;51.950;7.668;2024-03-08T08:33:22;30.67;;;26.60;;
5730;SDS011;2890;51.950;7.668;2024-03-08T08:35:50;32.67;;;27.20;;
5730;SDS011;2890;51.950;7.668;2024-03-08T08:38:18;31.27;;;27.30;;
5730;SDS011;2890;51.950;7.668;2024-03-08T08:40:45;31.23;;;24.77;;
5730;SDS011;2890;51.950;7.668;2024-03-08T08:43:12;34.87;;;27.17;;
5730;SDS011;2890;51.950;7.668;2024-03-08T08:45:40;37.73;;;26.87;;
5730;SDS011;2890;51.950;7.668;2024-03-08T08:48:07;28.17;;;25.17;;
5730;SDS011;2890;51.950;7.668;2024-03-08T08:50:35;32.73;;;26.87;;
5730;SDS011;2890;51.950;7.668;2024-03-08T08:53:02;29.03;;;24.50;;
5730;SDS011;2890;51.950;7.668;2024-03-08T08:55:28;29.83;;;25.83;;
5730;SDS011;2890;51.950;7.668;2024-03-08T08:57:56;29.50;;;25.53;;
5730;SDS011;2890;51.950;7.668;2024-03-08T09:00:22;30.63;;;27.30;;
5730;SDS011;2890;51.950;7.668;2024-03-08T09:02:53;31.87;;;25.73;;
5730;SDS011;2890;51.950;7.668;2024-03-08T09:05:20;29.80;;;25.90;;
5730;SDS011;2890;51.950;7.668;2024-03-08T09:07:49;31.30;;;25.40;;
5730;SDS011;2890;51.950;7.668;2024-03-08T09:10:15;34.00;;;26.83;;
5730;SDS011;2890;51.950;7.668;2024-03-08T09:12:44;30.20;;;26.33;;
5730;SDS011;2890;51.950;7.668;2024-03-08T09:15:12;30.50;;;26.70;;
5730;SDS011;2890;51.950;7.668;2024-03-08T09:17:38;29.00;;;25.80;;
5730;SDS011;2890;51.950;7.668;2024-03-08T09:20:07;32.87;;;26.80;;
5730;SDS011;2890;51.950;7.668;2024-03-08T09:22:35;29.20;;;25.93;;
5730;SDS011;2890;51.950;7.668;2024-03-08T09:25:02;29.80;;;24.40;;
5730;SDS011;2890;51.950;7.668;2024-03-08T09:27:30;33.57;;;26.53;;
5730;SDS011;2890;51.950;7.668;2024-03-08T09:29:56;30.10;;;24.37;;
5730;SDS011;2890;51.950;7.668;2024-03-08T09:32:23;29.67;;;25.20;;
5730;SDS011;2890;51.950;7.668;2024-03-08T09:34:49;26.47;;;23.77;;
5730;SDS011;2890;51.950;7.668;2024-03-08T09:37:17;30.93;;;26.53;;
5730;SDS011;2890;51.950;7.668;2024-03-08T09:39:44;28.43;;;25.30;;
5730;SDS011;2890;51.950;7.668;2024-03-08T09:42:10;28.20;;;25.03;;
5730;SDS011;2890;51.950;7.668;2024-03-08T09:44:39;31.37;;;25.23;;
5730;SDS011;2890;51.950;7.668;2024-03-08T09:47:10;30.93;;;25.73;;
5730;SDS011;2890;51.950;7.668;2024-03-08T09:49:38;30.13;;;25.07;;
5730;SDS011;2890;51.950;7.668;2024-03-08T09:52:05;28.93;;;25.73;;
5730;SDS011;2890;51.950;7.668;2024-03-08T09:54:34;27.53;;;24.23;;
5730;SDS011;2890;51.950;7.668;2024-03-08T09:57:00;27.00;;;23.87;;
5730;SDS011;2890;51.950;7.668;2024-03-08T09:59:29;30.67;;;25.17;;
5730;SDS011;2890;51.950;7.668;2024-03-08T10:02:13;30.53;;;25.87;;
5730;SDS011;2890;51.950;7.668;2024-03-08T10:04:41;27.50;;;24.00;;
5730;SDS011;2890;51.950;7.668;2024-03-08T10:07:08;27.47;;;24.10;;
5730;SDS011;2890;51.950;7.668;2024-03-08T10:09:36;30.80;;;24.13;;
5730;SDS011;2890;51.950;7.668;2024-03-08T10:12:02;29.70;;;24.10;;
5730;SDS011;2890;51.950;7.668;2024-03-08T10:14:30;31.70;;;26.60;;
5730;SDS011;2890;51.950;7.668;2024-03-08T10:16:57;27.60;;;24.27;;
5730;SDS011;2890;51.950;7.668;2024-03-08T10:19:25;30.33;;;25.27;;
5730;SDS011;2890;51.950;7.668;2024-03-08T10:21:52;27.07;;;24.20;;
5730;SDS011;2890;51.950;7.668;2024-03-08T10:24:18;25.73;;;22.70;;
5730;SDS011;2890;51.950;7.668;2024-03-08T10:26:46;25.30;;;22.47;;
5730;SDS011;2890;51.950;7.668;2024-03-08T10:29:13;29.20;;;24.00;;
5730;SDS011;2890;51.950;7.668;2024-03-08T10:31:42;24.70;;;22.00;;
5730;SDS011;2890;51.950;7.668;2024-03-08T10:34:09;29.80;;;23.50;;
5730;SDS011;2890;51.950;7.668;2024-03-08T10:36:35;28.17;;;21.47;;
5730;SDS011;2890;51.950;7.668;2024-03-08T10:39:03;25.97;;;21.97;;
5730;SDS011;2890;51.950;7.668;2024-03-08T10:41:36;24.43;;;21.83;;
5730;SDS011;2890;51.950;7.668;2024-03-08T10:44:13;26.33;;;21.63;;
5730;SDS011;2890;51.950;7.668;2024-03-08T10:46:47;26.50;;;22.90;;
5730;SDS011;2890;51.950;7.668;2024-03-08T10:49:23;24.13;;;21.30;;
5730;SDS011;2890;51.950;7.668;2024-03-08T10:51:51;30.70;;;21.63;;
5730;SDS011;2890;51.950;7.668;2024-03-08T10:54:19;25.70;;;21.70;;
5730;SDS011;2890;51.950;7.668;2024-03-08T10:56:46;25.00;;;21.93;;
5730;SDS011;2890;51.950;7.668;2024-03-08T10:59:16;28.20;;;21.07;;
5730;SDS011;2890;51.950;7.668;2024-03-08T11:01:44;26.50;;;21.93;;
5730;SDS011;2890;51.950;7.668;2024-03-08T11:04:10;28.40;;;22.37;;
5730;SDS011;2890;51.950;7.668;2024-03-08T11:06:44;26.33;;;21.63;;
5730;SDS011;2890;51.950;7.668;2024-03-08T11:09:27;24.37;;;21.67;;
5730;SDS011;2890;51.950;7.668;2024-03-08T11:14:46;28.60;;;20.23;;
5730;SDS011;2890;51.950;7.668;2024-03-08T11:17:15;23.10;;;20.57;;
5730;SDS011;2890;51.950;7.668;2024-03-08T11:19:45;25.93;;;21.10;;
5730;SDS011;2890;51.950;7.668;2024-03-08T11:22:20;25.70;;;21.40;;
5730;SDS011;2890;51.950;7.668;2024-03-08T11:24:49;25.40;;;21.80;;
5730;SDS011;2890;51.950;7.668;2024-03-08T11:27:15;23.53;;;21.00;;
5730;SDS011;2890;51.950;7.668;2024-03-08T11:29:42;26.13;;;20.87;;
5730;SDS011;2890;51.950;7.668;2024-03-08T11:32:10;21.37;;;19.07;;
5730;SDS011;2890;51.950;7.668;2024-03-08T11:34:37;21.77;;;19.53;;
5730;SDS011;2890;51.950;7.668;2024-03-08T11:37:05;22.50;;;19.97;;
5730;SDS011;2890;51.950;7.668;2024-03-08T11:39:34;23.70;;;19.53;;
5730;SDS011;2890;51.950;7.668;2024-03-08T11:42:02;21.00;;;18.80;;
5730;SDS011;2890;51.950;7.668;2024-03-08T11:44:29;21.10;;;17.83;;
5730;SDS011;2890;51.950;7.668;2024-03-08T11:46:56;21.00;;;18.17;;
5730;SDS011;2890;51.950;7.668;2024-03-08T11:49:24;28.23;;;20.00;;
5730;SDS011;2890;51.950;7.668;2024-03-08T11:51:51;20.80;;;18.60;;
5730;SDS011;2890;51.950;7.668;2024-03-08T11:54:18;21.90;;;18.60;;
5730;SDS011;2890;51.950;7.668;2024-03-08T11:56:45;24.43;;;18.40;;
5730;SDS011;2890;51.950;7.668;2024-03-08T11:59:12;20.57;;;18.00;;
5730;SDS011;2890;51.950;7.668;2024-03-08T12:01:39;23.07;;;18.30;;
5730;SDS011;2890;51.950;7.668;2024-03-08T12:04:06;24.03;;;18.30;;
5730;SDS011;2890;51.950;7.668;2024-03-08T12:06:37;20.80;;;17.87;;
5730;SDS011;2890;51.950;7.668;2024-03-08T12:09:07;21.30;;;17.60;;
5730;SDS011;2890;51.950;7.668;2024-03-08T12:11:35;20.70;;;18.50;;
5730;SDS011;2890;51.950;7.668;2024-03-08T12:14:02;23.40;;;20.10;;
5730;SDS011;2890;51.950;7.668;2024-03-08T12:16:28;22.83;;;17.70;;
5730;SDS011;2890;51.950;7.668;2024-03-08T12:18:55;23.03;;;18.90;;
5730;SDS011;2890;51.950;7.668;2024-03-08T12:21:23;20.63;;;17.90;;
5730;SDS011;2890;51.950;7.668;2024-03-08T12:24:02;22.63;;;19.30;;
5730;SDS011;2890;51.950;7.668;2024-03-08T12:26:30;23.13;;;19.50;;
5730;SDS011;2890;51.950;7.668;2024-03-08T12:29:09;20.20;;;17.93;;
5730;SDS011;2890;51.950;7.668;2024-03-08T12:31:42;20.73;;;17.83;;
5730;SDS011;2890;51.950;7.668;2024-03-08T12:34:08;21.37;;;17.80;;
5730;SDS011;2890;51.950;7.668;2024-03-08T12:36:36;22.17;;;17.70;;
5730;SDS011;2890;51.950;7.668;2024-03-08T12:39:04;19.97;;;17.70;;
5730;SDS011;2890;51.950;7.668;2024-03-08T12:41:39;22.73;;;16.37;;
5730;SDS011;2890;51.950;7.668;2024-03-08T12:44:05;22.23;;;17.73;;
5730;SDS011;2890;51.950;7.668;2024-03-08T12:46:36;20.60;;;18.17;;
5730;SDS011;2890;51.950;7.668;2024-03-08T12:49:05;19.83;;;16.70;;
5730;SDS011;2890;51.950;7.668;2024-03-08T12:51:33;22.03;;;19.13;;
5730;SDS011;2890;51.950;7.668;2024-03-08T12:53:59;22.83;;;18.30;;
5730;SDS011;2890;51.950;7.668;2024-03-08T12:56:29;20.60;;;17.93;;
5730;SDS011;2890;51.950;7.668;2024-03-08T12:58:57;27.10;;;18.20;;
5730;SDS011;2890;51.950;7.668;2024-03-08T13:01:24;22.73;;;17.77;;
5730;SDS011;2890;51.950;7.668;2024-03-08T13:03:51;21.83;;;18.80;;
5730;SDS011;2890;51.950;7.668;2024-03-08T13:06:18;22.47;;;18.13;;
5730;SDS011;2890;51.950;7.668;2024-03-08T13:08:46;21.17;;;18.47;;
5730;SDS011;2890;51.950;7.668;2024-03-08T13:11:14;21.37;;;18.10;;
5730;SDS011;2890;51.950;7.668;2024-03-08T13:13:41;23.70;;;18.87;;
5730;SDS011;2890;51.950;7.668;2024-03-08T13:16:09;21.27;;;17.90;;
5730;SDS011;2890;51.950;7.668;2024-03-08T13:18:39;21.20;;;17.87;;
5730;SDS011;2890;51.950;7.668;2024-03-08T13:21:07;24.33;;;18.90;;
5730;SDS011;2890;51.950;7.668;2024-03-08T13:23:34;23.70;;;18.73;;
5730;SDS011;2890;51.950;7.668;2024-03-08T13:26:04;21.07;;;18.13;;
5730;SDS011;2890;51.950;7.668;2024-03-08T13:28:31;20.90;;;18.13;;
5730;SDS011;2890;51.950;7.668;2024-03-08T13:31:03;21.30;;;18.20;;
5730;SDS011;2890;51.950;7.668;2024-03-08T13:33:31;21.60;;;18.37;;
5730;SDS011;2890;51.950;7.668;2024-03-08T13:36:00;23.33;;;18.57;;
5730;SDS011;2890;51.950;7.668;2024-03-08T13:38:28;21.40;;;17.67;;
5730;SDS011;2890;51.950;7.668;2024-03-08T13:40:57;21.20;;;17.73;;
5730;SDS011;2890;51.950;7.668;2024-03-08T13:43:23;27.00;;;19.27;;
5730;SDS011;2890;51.950;7.668;2024-03-08T13:45:50;22.20;;;19.17;;
5730;SDS011;2890;51.950;7.668;2024-03-08T13:48:18;22.17;;;19.20;;
5730;SDS011;2890;51.950;7.668;2024-03-08T13:50:45;22.40;;;19.43;;
5730;SDS011;2890;51.950;7.668;2024-03-08T13:53:11;24.07;;;18.83;;
5730;SDS011;2890;51.950;7.668;2024-03-08T13:55:38;23.50;;;19.47;;
5730;SDS011;2890;51.950;7.668;2024-03-08T13:58:05;22.80;;;17.80;;
5730;SDS011;2890;51.950;7.668;2024-03-08T14:00:34;23.70;;;19.67;;
5730;SDS011;2890;51.950;7.668;2024-03-08T14:03:01;27.70;;;18.70;;
5730;SDS011;2890;51.950;7.668;2024-03-08T14:05:31;23.80;;;19.57;;
5730;SDS011;2890;51.950;7.668;2024-03-08T14:07:59;23.57;;;18.47;;
5730;SDS011;2890;51.950;7.668;2024-03-08T14:10:28;23.23;;;20.50;;
5730;SDS011;2890;51.950;7.668;2024-03-08T14:12:56;28.23;;;20.13;;
5730;SDS011;2890;51.950;7.668;2024-03-08T14:15:22;22.47;;;19.63;;
5730;SDS011;2890;51.950;7.668;2024-03-08T14:17:53;25.13;;;19.20;;
5730;SDS011;2890;51.950;7.668;2024-03-08T14:20:20;23.90;;;19.23;;
5730;SDS011;2890;51.950;7.668;2024-03-08T14:22:51;27.30;;;20.33;;
5730;SDS011;2890;51.950;7.668;2024-03-08T14:25:18;24.43;;;19.57;;
5730;SDS011;2890;51.950;7.668;2024-03-08T14:27:45;27.33;;;20.70;;
5730;SDS011;2890;51.950;7.668;2024-03-08T14:30:12;26.20;;;20.70;;
5730;SDS011;2890;51.950;7.668;2024-03-08T14:32:38;26.40;;;21.40;;
5730;SDS011;2890;51.950;7.668;2024-03-08T14:35:06;31.30;;;21.47;;
5730;SDS011;2890;51.950;7.668;2024-03-08T14:37:33;25.13;;;20.97;;
5730;SDS011;2890;51.950;7.668;2024-03-08T14:40:01;26.10;;;18.90;;
5730;SDS011;2890;51.950;7.668;2024-03-08T14:42:30;24.33;;;21.70;;
5730;SDS011;2890;51.950;7.668;2024-03-08T14:44:56;26.97;;;20.27;;
5730;SDS011;2890;51.950;7.668;2024-03-08T14:47:23;27.17;;;21.07;;
5730;SDS011;2890;51.950;7.668;2024-03-08T14:49:49;23.67;;;19.53;;
5730;SDS011;2890;51.950;7.668;2024-03-08T14:52:16;24.23;;;20.97;;
5730;SDS011;2890;51.950;7.668;2024-03-08T14:54:53;23.63;;;19.57;;
5730;SDS011;2890;51.950;7.668;2024-03-08T14:57:22;27.33;;;21.17;;
5730;SDS011;2890;51.950;7.668;2024-03-08T14:59:49;29.13;;;20.10;;